Time;durP1;ratioP1;P1;durP2;ratioP2;P2;SDS_P1;SDS_P2;PMS_P1;PMS_P2;Temp;Humidity;BMP_temperature;BMP_pressure;BME280_temperature;BME280_humidity;BME280_pressure;Samples;Min_cycle;Max_cycle;Signal;HPM_P1;HPM_P2
2021/11/12 00:03:03;;;;;;;;;;;9.60;99.90;;;;;;5072533;28;19970;-77
2021/11/12 00:13:43;;;;;;;;;;;9.60;99.90;;;;;;5070932;28;19982;-76
2021/11/12 00:16:09;;;;;;;;;;;9.60;99.90;;;;;;5073550;28;20003;-76
2021/11/12 00:18:36;;;;;;;;;;;9.60;99.90;;;;;;5072737;28;20016;-76
2021/11/12 00:21:02;;;;;;;;;;;9.60;99.90;;;;;;5074419;28;19932;-76
2021/11/12 00:23:28;;;;;;;;;;;9.60;99.90;;;;;;5074938;28;20373;-76
2021/11/12 00:25:54;;;;;;;;;;;9.60;99.90;;;;;;5074812;28;19912;-76
2021/11/12 00:28:22;;;;;;;;;;;9.50;99.90;;;;;;5073776;28;20223;-76
2021/11/12 00:41:42;;;;;;;;;;;9.50;99.90;;;;;;5075924;28;19927;-76
2021/11/12 00:47:08;;;;;;;;;;;9.50;99.90;;;;;;5074124;28;20331;-76
2021/11/12 00:49:34;;;;;;;;;;;9.60;99.90;;;;;;5076707;28;19919;-76
2021/11/12 00:52:04;;;;;;;;;;;9.60;99.90;;;;;;5073319;28;20315;-76
2021/11/12 00:54:29;;;;;;;;;;;9.50;99.90;;;;;;5072713;28;19917;-76
2021/11/12 00:56:55;;;;;;;;;;;9.50;99.90;;;;;;5074009;28;20039;-76
2021/11/12 00:59:21;;;;;;;;;;;9.50;99.90;;;;;;5076491;28;20291;-76
2021/11/12 01:01:47;;;;;;;;;;;9.50;99.90;;;;;;5072918;28;19916;-76
2021/11/12 01:04:14;;;;;;;;;;;9.50;99.90;;;;;;5074592;28;19912;-76
2021/11/12 01:06:40;;;;;;;;;;;9.50;99.90;;;;;;5077465;28;20008;-77
2021/11/12 01:09:07;;;;;;;;;;;9.40;99.90;;;;;;5074394;28;20007;-76
2021/11/12 01:11:32;;;;;;;;;;;9.50;99.90;;;;;;5073831;28;19919;-76
2021/11/12 01:13:58;;;;;;;;;;;9.40;99.90;;;;;;5071729;28;19916;-76
2021/11/12 01:16:24;;;;;;;;;;;9.40;99.90;;;;;;5073735;28;19969;-76
2021/11/12 01:18:50;;;;;;;;;;;9.40;99.90;;;;;;5074187;28;19966;-76
2021/11/12 01:21:16;;;;;;;;;;;9.40;99.90;;;;;;5074692;28;19912;-76
2021/11/12 01:23:43;;;;;;;;;;;9.40;99.90;;;;;;5072470;28;19920;-76
2021/11/12 01:26:09;;;;;;;;;;;9.40;99.90;;;;;;5075043;28;19917;-77
2021/11/12 01:28:35;;;;;;;;;;;9.40;99.90;;;;;;5076779;28;19938;-77
2021/11/12 01:31:01;;;;;;;;;;;9.40;99.90;;;;;;5088017;28;19912;-76
2021/11/12 01:33:28;;;;;;;;;;;9.40;99.90;;;;;;5077024;28;21040;-76
2021/11/12 01:35:56;;;;;;;;;;;9.40;99.90;;;;;;5067701;28;20299;-76
2021/11/12 01:38:22;;;;;;;;;;;9.30;99.90;;;;;;5071777;28;19929;-76
2021/11/12 01:40:49;;;;;;;;;;;9.30;99.90;;;;;;5072526;28;19981;-75
2021/11/12 01:43:18;;;;;;;;;;;9.30;99.90;;;;;;5073290;28;19929;-76
2021/11/12 01:51:40;;;;;;;;;;;9.20;99.90;;;;;;5070856;28;19934;-76
2021/11/12 01:53:49;;;;;;;;;;;9.20;99.90;;;;;;5072463;28;19913;-76
2021/11/12 02:01:44;;;;;;;;;;;9.20;99.90;;;;;;5074922;28;19924;-76
2021/11/12 02:04:10;;;;;;;;;;;9.20;99.90;;;;;;5070436;28;20012;-76
2021/11/12 02:06:36;;;;;;;;;;;9.20;99.90;;;;;;5073746;28;19923;-76
2021/11/12 02:09:08;;;;;;;;;;;9.20;99.90;;;;;;5073658;28;19986;-76
2021/11/12 02:11:34;;;;;;;;;;;9.20;99.90;;;;;;5071850;28;19942;-76
2021/11/12 02:14:00;;;;;;;;;;;9.20;99.90;;;;;;5073818;28;19970;-76
2021/11/12 02:16:32;;;;;;;;;;;9.20;99.90;;;;;;5087875;28;19951;-76
2021/11/12 02:18:58;;;;;;;;;;;9.20;99.90;;;;;;5075075;28;20011;-76
2021/11/12 02:22:07;;;;;;;;;;;9.20;99.90;;;;;;5076363;28;20376;-76
2021/11/12 02:24:15;;;;;;;;;;;9.20;99.90;;;;;;5068219;28;20548;-76
2021/11/12 02:26:44;;;;;;;;;;;9.20;99.90;;;;;;5072278;28;19919;-76
2021/11/12 02:29:11;;;;;;;;;;;9.20;99.90;;;;;;5074576;28;19916;-76
2021/11/12 02:31:37;;;;;;;;;;;9.20;99.90;;;;;;5072575;28;19920;-76
2021/11/12 02:34:05;;;;;;;;;;;9.20;99.90;;;;;;5070663;28;19916;-76
2021/11/12 02:36:31;;;;;;;;;;;9.20;99.90;;;;;;5076230;28;19916;-76
2021/11/12 02:38:56;;;;;;;;;;;9.20;99.90;;;;;;5070731;28;19936;-76
2021/11/12 02:41:23;;;;;;;;;;;9.20;99.90;;;;;;5072224;28;20995;-76
2021/11/12 02:43:50;;;;;;;;;;;9.10;99.90;;;;;;5069986;28;19913;-76
2021/11/12 02:46:18;;;;;;;;;;;9.20;99.90;;;;;;5073490;28;19927;-76
2021/11/12 02:48:43;;;;;;;;;;;9.20;99.90;;;;;;5071831;28;20003;-77
2021/11/12 02:51:11;;;;;;;;;;;9.20;99.90;;;;;;5083692;28;19999;-77
2021/11/12 02:53:38;;;;;;;;;;;9.10;99.90;;;;;;5074063;28;19962;-76
2021/11/12 02:56:08;;;;;;;;;;;9.20;99.90;;;;;;5075447;28;20376;-75
2021/11/12 02:58:34;;;;;;;;;;;9.30;99.90;;;;;;5074116;28;19919;-77
2021/11/12 03:01:00;;;;;;;;;;;9.30;99.90;;;;;;5076288;28;19913;-75
2021/11/12 03:03:27;;;;;;;;;;;9.30;99.90;;;;;;5076253;28;20299;-76
2021/11/12 03:05:53;;;;;;;;;;;9.20;99.90;;;;;;5077238;28;19943;-76
2021/11/12 03:08:19;;;;;;;;;;;9.20;99.90;;;;;;5076396;28;20377;-76
2021/11/12 03:10:44;;;;;;;;;;;9.10;99.90;;;;;;5075987;28;19926;-76
2021/11/12 03:13:11;;;;;;;;;;;9.10;99.90;;;;;;5075449;28;19954;-76
2021/11/12 03:15:37;;;;;;;;;;;9.10;99.90;;;;;;5072559;28;19920;-78
2021/11/12 03:18:02;;;;;;;;;;;9.10;99.90;;;;;;5076735;28;20191;-76
2021/11/12 03:20:29;;;;;;;;;;;9.10;99.90;;;;;;5077369;28;19919;-75
2021/11/12 03:23:13;;;;;;;;;;;9.10;99.90;;;;;;5076674;28;19982;-76
2021/11/12 03:25:53;;;;;;;;;;;9.10;99.90;;;;;;5077584;28;19916;-75
2021/11/12 03:28:50;;;;;;;;;;;9.10;99.90;;;;;;5077403;28;20004;-75
2021/11/12 04:49:23;;;;;;;;;;;8.70;99.90;;;;;;5072729;28;20275;-76
2021/11/12 05:56:46;;;;;;;;;;;7.10;99.90;;;;;;5071757;28;19928;-76
2021/11/12 05:59:13;;;;;;;;;;;7.10;99.90;;;;;;5075789;28;19943;-75
2021/11/12 06:01:40;;;;;;;;;;;7.00;99.90;;;;;;5070897;28;20372;-76
2021/11/12 06:04:06;;;;;;;;;;;6.90;99.90;;;;;;5073088;28;19959;-76
2021/11/12 06:06:32;;;;;;;;;;;6.90;99.90;;;;;;5073365;28;19952;-76
2021/11/12 06:08:58;;;;;;;;;;;6.80;99.90;;;;;;5074532;28;19913;-76
2021/11/12 06:11:23;;;;;;;;;;;6.80;99.90;;;;;;5071893;28;19913;-77
2021/11/12 06:13:49;;;;;;;;;;;6.70;99.90;;;;;;5072888;28;19920;-76
2021/11/12 06:16:15;;;;;;;;;;;6.70;99.90;;;;;;5083580;28;19965;-76
2021/11/12 06:18:42;;;;;;;;;;;6.60;99.90;;;;;;5071290;28;19916;-76
2021/11/12 06:21:09;;;;;;;;;;;6.60;99.90;;;;;;5070539;28;19920;-76
2021/11/12 06:23:35;;;;;;;;;;;6.60;99.90;;;;;;5067880;28;20014;-75
2021/11/12 06:26:00;;;;;;;;;;;6.60;99.90;;;;;;5068147;28;20227;-75
2021/11/12 06:28:26;;;;;;;;;;;6.50;99.90;;;;;;5072212;28;19917;-76
2021/11/12 06:30:52;;;;;;;;;;;6.50;99.90;;;;;;5073607;28;19919;-76
2021/11/12 06:33:19;;;;;;;;;;;6.40;99.90;;;;;;5075023;28;19919;-75
2021/11/12 06:35:44;;;;;;;;;;;6.30;99.90;;;;;;5077412;28;19931;-77
2021/11/12 06:38:13;;;;;;;;;;;6.30;99.90;;;;;;5075048;28;19924;-75
2021/11/12 06:40:39;;;;;;;;;;;6.20;99.90;;;;;;5074313;28;19919;-75
2021/11/12 06:43:20;;;;;;;;;;;6.20;99.90;;;;;;5075414;28;20319;-76
2021/11/12 06:51:15;;;;;;;;;;;6.10;99.90;;;;;;5074849;28;19961;-75
2021/11/12 06:53:40;;;;;;;;;;;6.10;99.90;;;;;;5073446;28;20207;-75
2021/11/12 06:56:06;;;;;;;;;;;6.00;99.90;;;;;;5075144;28;19919;-75
2021/11/12 06:58:34;;;;;;;;;;;6.00;99.90;;;;;;5077927;28;19944;-75
2021/11/12 07:01:00;;;;;;;;;;;5.90;99.90;;;;;;5075196;28;20295;-76
2021/11/12 07:03:26;;;;;;;;;;;5.90;99.90;;;;;;5074557;28;19923;-75
2021/11/12 07:05:52;;;;;;;;;;;5.90;99.90;;;;;;5073141;28;19919;-75
2021/11/12 07:08:18;;;;;;;;;;;5.90;99.90;;;;;;5076379;28;20294;-75
2021/11/12 07:10:44;;;;;;;;;;;5.80;99.90;;;;;;5074701;28;20333;-75
2021/11/12 07:13:09;;;;;;;;;;;5.70;99.90;;;;;;5078040;28;19923;-76
2021/11/12 07:15:35;;;;;;;;;;;5.70;99.90;;;;;;5076654;28;19917;-76
2021/11/12 07:18:00;;;;;;;;;;;5.70;99.90;;;;;;5077124;28;20372;-75
2021/11/12 07:20:27;;;;;;;;;;;5.70;99.90;;;;;;5075873;28;19912;-75
2021/11/12 07:22:53;;;;;;;;;;;5.70;99.90;;;;;;5088978;28;19960;-76
2021/11/12 07:25:18;;;;;;;;;;;5.70;99.90;;;;;;5074913;28;20329;-75
2021/11/12 07:27:44;;;;;;;;;;;5.70;99.90;;;;;;5075872;28;19959;-75
2021/11/12 07:30:14;;;;;;;;;;;5.70;99.90;;;;;;5076365;28;20269;-76
2021/11/12 07:32:42;;;;;;;;;;;5.70;99.90;;;;;;5073646;28;19934;-75
2021/11/12 07:35:08;;;;;;;;;;;5.60;99.90;;;;;;5075446;28;19924;-75
2021/11/12 07:37:34;;;;;;;;;;;5.60;99.90;;;;;;5075876;28;19950;-75
2021/11/12 07:40:03;;;;;;;;;;;5.60;99.90;;;;;;5075741;28;20193;-75
2021/11/12 07:45:03;;;;;;;;;;;5.60;99.90;;;;;;5073635;28;19920;-75
2021/11/12 07:47:28;;;;;;;;;;;5.60;99.90;;;;;;5075892;28;20394;-75
2021/11/12 07:49:55;;;;;;;;;;;5.70;99.90;;;;;;5077647;28;20019;-76
2021/11/12 07:52:21;;;;;;;;;;;5.70;99.90;;;;;;5074614;28;19999;-75
2021/11/12 07:54:48;;;;;;;;;;;5.70;99.90;;;;;;5074659;28;19966;-76
2021/11/12 07:57:13;;;;;;;;;;;5.70;99.90;;;;;;5074906;28;20369;-75
2021/11/12 07:59:39;;;;;;;;;;;5.80;99.90;;;;;;5072689;28;19943;-75
2021/11/12 08:02:06;;;;;;;;;;;5.90;99.90;;;;;;5073962;28;21105;-75
2021/11/12 08:04:33;;;;;;;;;;;5.80;99.90;;;;;;5075762;28;19913;-75
2021/11/12 08:07:00;;;;;;;;;;;5.90;99.90;;;;;;5074308;28;19969;-75
2021/11/12 08:09:36;;;;;;;;;;;5.90;99.90;;;;;;5088222;28;19920;-75
2021/11/12 08:12:05;;;;;;;;;;;5.90;99.90;;;;;;5089452;28;19978;-75
2021/11/12 08:19:50;;;;;;;;;;;5.80;99.90;;;;;;5076285;28;19912;-75
2021/11/12 08:25:14;;;;;;;;;;;5.70;99.90;;;;;;5074798;28;20326;-75
2021/11/12 08:43:23;;;;;;;;;;;5.70;99.90;;;;;;5073531;28;19920;-75
2021/11/12 08:48:36;;;;;;;;;;;5.70;99.90;;;;;;5072997;28;20317;-76
2021/11/12 08:51:02;;;;;;;;;;;5.70;99.90;;;;;;5074200;28;19919;-75
2021/11/12 08:53:28;;;;;;;;;;;5.70;99.90;;;;;;5073244;28;19921;-76
2021/11/12 08:55:53;;;;;;;;;;;5.80;99.90;;;;;;5071995;28;20011;-76
2021/11/12 08:58:19;;;;;;;;;;;5.80;99.90;;;;;;5073786;28;19917;-75
2021/11/12 09:00:45;;;;;;;;;;;5.80;99.90;;;;;;5074177;28;19956;-75
2021/11/12 09:03:11;;;;;;;;;;;5.80;99.90;;;;;;5071044;28;20003;-75
2021/11/12 09:05:37;;;;;;;;;;;5.80;99.90;;;;;;5081321;28;20002;-75
2021/11/12 09:08:03;;;;;;;;;;;5.80;99.90;;;;;;5086550;28;20279;-74
2021/11/12 09:10:30;;;;;;;;;;;5.90;99.90;;;;;;5069738;28;19999;-77
2021/11/12 09:13:06;;;;;;;;;;;5.90;99.90;;;;;;5076716;28;19924;-74
2021/11/12 09:15:33;;;;;;;;;;;6.00;99.90;;;;;;5069881;28;20375;-75
2021/11/12 09:18:01;;;;;;;;;;;6.00;99.90;;;;;;5071194;28;20021;-76
2021/11/12 09:20:26;;;;;;;;;;;6.00;99.90;;;;;;5076357;28;19916;-74
2021/11/12 09:22:53;;;;;;;;;;;6.10;99.90;;;;;;5068764;28;19932;-76
2021/11/12 09:25:20;;;;;;;;;;;6.10;99.90;;;;;;5064882;28;19913;-75
2021/11/12 09:27:45;;;;;;;;;;;6.20;99.90;;;;;;5077695;28;19920;-75
2021/11/12 09:30:13;;;;;;;;;;;6.20;99.90;;;;;;5070778;28;19924;-76
2021/11/12 09:32:39;;;;;;;;;;;6.20;99.90;;;;;;5072193;28;19921;-75
2021/11/12 09:35:05;;;;;;;;;;;6.30;99.90;;;;;;5070152;28;19925;-76
2021/11/12 09:37:30;;;;;;;;;;;6.30;99.90;;;;;;5071981;28;20192;-75
2021/11/12 09:40:00;;;;;;;;;;;6.40;99.90;;;;;;5076829;28;20050;-76
2021/11/12 09:42:30;;;;;;;;;;;6.40;99.90;;;;;;5071500;28;19920;-76
2021/11/12 09:44:57;;;;;;;;;;;6.50;99.90;;;;;;5073104;28;20325;-75
2021/11/12 09:47:27;;;;;;;;;;;6.50;99.90;;;;;;5072053;28;21971;-75
2021/11/12 09:49:57;;;;;;;;;;;6.50;99.90;;;;;;5064308;28;20254;-75
2021/11/12 09:52:26;;;;;;;;;;;6.60;99.90;;;;;;5087699;28;20010;-76
2021/11/12 09:54:52;;;;;;;;;;;6.60;99.90;;;;;;5070378;28;19965;-75
2021/11/12 09:57:18;;;;;;;;;;;6.70;99.90;;;;;;5073191;28;19951;-76
2021/11/12 09:59:49;;;;;;;;;;;6.70;99.90;;;;;;5071934;28;20022;-77
2021/11/12 10:02:15;;;;;;;;;;;6.70;99.90;;;;;;5070782;28;19927;-83
2021/11/12 10:04:41;;;;;;;;;;;6.70;99.90;;;;;;5068850;28;19959;-76
2021/11/12 10:07:11;;;;;;;;;;;6.80;99.90;;;;;;5070532;28;19916;-76
2021/11/12 10:09:37;;;;;;;;;;;6.80;99.90;;;;;;5065134;28;19916;-75
2021/11/12 10:12:04;;;;;;;;;;;6.90;99.90;;;;;;5073177;28;19921;-75
2021/11/12 10:14:38;;;;;;;;;;;6.90;99.90;;;;;;5072342;28;19912;-76
2021/11/12 10:17:06;;;;;;;;;;;7.00;99.90;;;;;;5079397;28;19913;-75
2021/11/12 10:19:38;;;;;;;;;;;7.10;99.90;;;;;;5083247;28;19916;-75
2021/11/12 10:22:04;;;;;;;;;;;7.10;99.90;;;;;;5070078;28;19959;-76
2021/11/12 10:24:36;;;;;;;;;;;7.10;99.90;;;;;;5085016;28;19920;-75
2021/11/12 10:27:12;;;;;;;;;;;7.00;99.90;;;;;;5069514;28;19920;-76
2021/11/12 10:29:46;;;;;;;;;;;7.00;99.90;;;;;;5071489;28;19938;-75
2021/11/12 10:32:13;;;;;;;;;;;7.00;99.90;;;;;;5071423;28;20237;-76
2021/11/12 10:34:40;;;;;;;;;;;7.10;99.90;;;;;;5071156;28;19979;-75
2021/11/12 10:37:08;;;;;;;;;;;7.10;99.90;;;;;;5071310;28;19917;-75
2021/11/12 10:39:35;;;;;;;;;;;7.20;99.90;;;;;;5072157;28;20536;-75
2021/11/12 10:42:01;;;;;;;;;;;7.30;99.90;;;;;;5073973;28;19917;-75
2021/11/12 10:44:28;;;;;;;;;;;7.40;99.90;;;;;;5071238;28;19913;-75
2021/11/12 10:46:54;;;;;;;;;;;7.50;99.90;;;;;;5074241;28;20034;-76
2021/11/12 10:49:37;;;;;;;;;;;7.50;99.90;;;;;;5074724;28;20016;-75
2021/11/12 10:52:06;;;;;;;;;;;7.50;99.90;;;;;;5070513;28;19920;-76
2021/11/12 10:54:40;;;;;;;;;;;7.60;99.90;;;;;;5070340;28;20253;-76
2021/11/12 10:57:06;;;;;;;;;;;7.60;99.90;;;;;;5070277;28;19921;-75
2021/11/12 10:59:34;;;;;;;;;;;7.70;99.90;;;;;;5084079;28;19920;-75
2021/11/12 11:02:00;;;;;;;;;;;7.70;99.90;;;;;;5067617;28;19972;-75
2021/11/12 11:04:26;;;;;;;;;;;7.60;99.90;;;;;;5067871;28;20345;-74
2021/11/12 11:06:52;;;;;;;;;;;7.70;99.90;;;;;;5067823;28;19912;-75
2021/11/12 11:09:19;;;;;;;;;;;7.80;99.90;;;;;;5068624;28;19920;-75
2021/11/12 11:11:45;;;;;;;;;;;7.80;99.90;;;;;;5067965;28;19916;-75
2021/11/12 11:14:32;;;;;;;;;;;7.80;99.90;;;;;;5069876;28;19916;-75
2021/11/12 11:17:16;;;;;;;;;;;7.90;99.90;;;;;;5068157;28;19995;-75
2021/11/12 11:19:42;;;;;;;;;;;8.00;99.90;;;;;;5071514;28;19970;-75
2021/11/12 11:22:11;;;;;;;;;;;8.10;99.90;;;;;;5072879;28;19920;-75
2021/11/12 11:24:37;;;;;;;;;;;8.20;99.90;;;;;;5070758;28;19924;-75
2021/11/12 11:27:04;;;;;;;;;;;8.20;99.90;;;;;;5071330;28;19920;-76
2021/11/12 11:29:30;;;;;;;;;;;8.20;99.90;;;;;;5085199;28;19916;-74
2021/11/12 11:31:56;;;;;;;;;;;8.20;99.90;;;;;;5073251;28;19952;-75
2021/11/12 11:34:25;;;;;;;;;;;8.20;99.90;;;;;;5073659;28;19966;-74
2021/11/12 11:36:55;;;;;;;;;;;8.20;99.90;;;;;;5072597;28;19921;-75
2021/11/12 11:39:21;;;;;;;;;;;8.20;99.90;;;;;;5072200;28;19928;-75
2021/11/12 11:41:47;;;;;;;;;;;8.20;99.90;;;;;;5073812;28;20183;-75
2021/11/12 11:44:15;;;;;;;;;;;8.10;99.90;;;;;;5073918;28;19913;-76
2021/11/12 11:46:44;;;;;;;;;;;8.10;99.90;;;;;;5071973;28;19912;-76
2021/11/12 11:49:10;;;;;;;;;;;8.00;99.90;;;;;;5071810;28;19917;-75
2021/11/12 11:51:38;;;;;;;;;;;8.00;99.90;;;;;;5071039;28;19921;-75
2021/11/12 11:54:03;;;;;;;;;;;8.00;99.90;;;;;;5073282;28;19927;-76
2021/11/12 11:56:30;;;;;;;;;;;8.00;99.90;;;;;;5072950;28;19916;-75
2021/11/12 11:58:57;;;;;;;;;;;7.90;99.90;;;;;;5072958;28;19920;-75
2021/11/12 12:01:22;;;;;;;;;;;7.90;99.90;;;;;;5073241;28;19913;-76
2021/11/12 12:04:10;;;;;;;;;;;7.90;99.90;;;;;;5072071;28;20444;-76
2021/11/12 12:06:39;;;;;;;;;;;7.80;99.90;;;;;;5071524;28;20350;-75
2021/11/12 12:09:08;;;;;;;;;;;7.80;99.90;;;;;;5070212;28;20348;-75
2021/11/12 12:11:40;;;;;;;;;;;7.80;99.90;;;;;;5070915;28;19920;-75
2021/11/12 12:14:20;;;;;;;;;;;7.70;99.90;;;;;;5070776;28;19920;-76
2021/11/12 12:17:11;;;;;;;;;;;7.70;99.90;;;;;;5072616;28;19982;-75
2021/11/12 12:19:55;;;;;;;;;;;7.70;99.90;;;;;;5072539;28;19921;-76
2021/11/12 12:31:21;;;;;;;;;;;7.80;99.90;;;;;;5070927;28;20021;-75
2021/11/12 12:37:00;;;;;;;;;;;7.80;99.90;;;;;;5069326;28;19920;-75
2021/11/12 13:19:47;;;;;;;;;;;7.90;99.90;;;;;;5075457;28;19919;-75
2021/11/12 13:22:02;;;;;;;;;;;7.90;99.90;;;;;;5073945;28;19960;-75
2021/11/12 13:24:33;;;;;;;;;;;7.90;99.90;;;;;;5073823;28;19917;-76
2021/11/12 13:27:06;;;;;;;;;;;7.90;99.90;;;;;;5072962;28;19958;-75
2021/11/12 13:29:33;;;;;;;;;;;7.90;99.90;;;;;;5074667;28;19912;-75
2021/11/12 13:32:03;;;;;;;;;;;8.00;99.90;;;;;;5071988;28;20314;-75
2021/11/12 13:34:29;;;;;;;;;;;8.00;99.90;;;;;;5073071;28;19916;-75
2021/11/12 13:36:55;;;;;;;;;;;8.00;99.90;;;;;;5072343;28;19959;-76
2021/11/12 13:39:22;;;;;;;;;;;8.10;99.90;;;;;;5089005;28;19920;-75
2021/11/12 13:41:59;;;;;;;;;;;8.10;99.90;;;;;;5075453;28;20325;-75
2021/11/12 13:44:29;;;;;;;;;;;8.20;99.90;;;;;;5072469;28;19916;-75
2021/11/12 13:46:56;;;;;;;;;;;8.20;99.90;;;;;;5073433;28;20199;-75
2021/11/12 13:49:36;;;;;;;;;;;8.20;99.90;;;;;;5070349;28;21850;-75
2021/11/12 13:52:08;;;;;;;;;;;8.20;99.90;;;;;;5072893;28;19969;-75
2021/11/12 13:54:39;;;;;;;;;;;8.20;99.90;;;;;;5072362;28;20295;-76
2021/11/12 13:57:09;;;;;;;;;;;8.30;99.90;;;;;;5072352;28;20084;-75
2021/11/12 13:59:34;;;;;;;;;;;8.40;99.90;;;;;;5072614;28;19916;-75
2021/11/12 14:02:01;;;;;;;;;;;8.40;99.90;;;;;;5073017;28;19922;-75
2021/11/12 14:04:28;;;;;;;;;;;8.40;99.90;;;;;;5073373;28;20011;-75
2021/11/12 14:06:55;;;;;;;;;;;8.50;99.90;;;;;;5061780;28;19955;-75
2021/11/12 14:09:22;;;;;;;;;;;8.50;99.90;;;;;;5070391;28;19912;-76
2021/11/12 14:12:02;;;;;;;;;;;8.50;99.90;;;;;;5072229;28;19916;-76
2021/11/12 14:14:29;;;;;;;;;;;8.50;99.90;;;;;;5069523;28;20194;-75
2021/11/12 14:17:00;;;;;;;;;;;8.50;99.90;;;;;;5075446;28;19978;-74
2021/11/12 14:22:12;;;;;;;;;;;8.50;99.90;;;;;;5072500;28;19924;-75
2021/11/12 14:32:29;;;;;;;;;;;8.70;99.90;;;;;;5069533;28;19960;-75
2021/11/12 14:35:17;;;;;;;;;;;8.70;99.90;;;;;;5069975;28;19921;-75
2021/11/12 14:37:54;;;;;;;;;;;8.70;99.90;;;;;;5060125;28;19999;-76
2021/11/12 14:40:55;;;;;;;;;;;8.70;99.90;;;;;;5070470;28;19915;-75
2021/11/12 14:49:11;;;;;;;;;;;8.70;99.90;;;;;;5069717;28;19913;-76
2021/11/12 14:54:32;;;;;;;;;;;8.60;99.90;;;;;;5073693;28;19955;-76
2021/11/12 14:56:59;;;;;;;;;;;8.60;99.90;;;;;;5076910;28;20265;-75
2021/11/12 14:59:25;;;;;;;;;;;8.60;99.90;;;;;;5076221;28;20346;-76
2021/11/12 15:01:51;;;;;;;;;;;8.60;99.90;;;;;;5074948;28;19999;-79
2021/11/12 15:04:17;;;;;;;;;;;8.60;99.90;;;;;;5075451;28;19999;-75
2021/11/12 15:06:43;;;;;;;;;;;8.50;99.90;;;;;;5075207;28;19913;-76
2021/11/12 15:09:19;;;;;;;;;;;8.50;99.90;;;;;;5074826;28;20572;-75
2021/11/12 15:11:48;;;;;;;;;;;8.50;99.90;;;;;;5075613;28;20324;-75
2021/11/12 15:14:19;;;;;;;;;;;8.50;99.90;;;;;;5074460;28;20557;-75
2021/11/12 15:16:45;;;;;;;;;;;8.50;99.90;;;;;;5088702;28;19917;-76
2021/11/12 15:19:16;;;;;;;;;;;8.50;99.90;;;;;;5074676;28;19913;-76
2021/11/12 15:27:12;;;;;;;;;;;8.40;99.90;;;;;;5073960;28;19919;-75
2021/11/12 15:29:53;;;;;;;;;;;8.30;99.90;;;;;;5085594;28;19917;-74
2021/11/12 15:32:29;;;;;;;;;;;8.40;99.90;;;;;;5074619;28;20242;-74
2021/11/12 15:35:04;;;;;;;;;;;8.40;99.90;;;;;;5073351;28;19924;-76
2021/11/12 15:40:21;;;;;;;;;;;8.30;99.90;;;;;;5075653;28;19927;-74
2021/11/12 15:47:48;;;;;;;;;;;8.30;99.90;;;;;;5075058;28;20005;-74
2021/11/12 15:50:37;;;;;;;;;;;8.30;99.90;;;;;;5075647;28;19939;-74
2021/11/12 16:01:27;;;;;;;;;;;8.10;99.90;;;;;;5070674;28;19921;-74
2021/11/12 16:14:33;;;;;;;;;;;7.90;99.90;;;;;;5073936;28;19923;-74
2021/11/12 16:22:25;;;;;;;;;;;7.90;99.90;;;;;;5077605;28;19917;-75
2021/11/12 16:24:55;;;;;;;;;;;7.80;99.90;;;;;;5074414;28;20345;-75
2021/11/12 16:27:21;;;;;;;;;;;7.80;99.90;;;;;;5074238;28;20011;-75
2021/11/12 16:29:54;;;;;;;;;;;7.90;99.90;;;;;;5075188;28;19916;-75
2021/11/12 16:32:28;;;;;;;;;;;7.90;99.90;;;;;;5073278;28;19926;-74
2021/11/12 16:35:00;;;;;;;;;;;8.00;99.90;;;;;;5073576;28;19978;-74
2021/11/12 16:37:27;;;;;;;;;;;8.00;99.90;;;;;;5073036;28;19920;-74
2021/11/12 16:40:10;;;;;;;;;;;8.10;99.90;;;;;;5073879;28;19920;-74
2021/11/12 17:00:25;;;;;;;;;;;8.20;99.90;;;;;;5068897;28;19998;-74
2021/11/12 17:06:16;;;;;;;;;;;8.20;99.90;;;;;;5073136;28;19919;-76
2021/11/12 17:11:13;;;;;;;;;;;8.30;99.90;;;;;;5072415;28;19955;-77
2021/11/12 17:48:53;;;;;;;;;;;8.60;99.90;;;;;;5072990;28;20308;-75
2021/11/12 18:02:56;;;;;;;;;;;8.60;99.90;;;;;;5075238;28;19922;-75
2021/11/12 21:45:21;;;;;;;;;;;9.00;99.90;;;;;;5066735;28;19957;-75
2021/11/12 21:47:46;;;;;;;;;;;8.90;99.90;;;;;;5067226;28;19947;-75
2021/11/12 21:50:12;;;;;;;;;;;9.00;99.90;;;;;;5070918;28;19983;-74
2021/11/12 21:52:37;;;;;;;;;;;9.00;99.90;;;;;;5071622;28;19919;-76
2021/11/12 21:55:07;;;;;;;;;;;9.00;99.90;;;;;;5070587;28;19932;-75
2021/11/12 21:57:33;;;;;;;;;;;8.90;99.90;;;;;;5070189;28;20318;-75
2021/11/12 21:59:59;;;;;;;;;;;9.00;99.90;;;;;;5070127;28;20207;-80
2021/11/12 22:02:25;;;;;;;;;;;9.00;99.90;;;;;;5069489;28;19927;-75
2021/11/12 22:04:50;;;;;;;;;;;9.00;99.90;;;;;;5069374;28;20226;-76
2021/11/12 22:07:16;;;;;;;;;;;8.90;99.90;;;;;;5068218;28;20241;-76
2021/11/12 22:09:42;;;;;;;;;;;9.00;99.90;;;;;;5067936;28;20300;-75
2021/11/12 22:12:07;;;;;;;;;;;8.90;99.90;;;;;;5069435;28;19921;-76
2021/11/12 22:14:33;;;;;;;;;;;9.00;99.90;;;;;;5070000;28;19912;-75
2021/11/12 22:16:59;;;;;;;;;;;9.00;99.90;;;;;;5085693;28;20215;-75
2021/11/12 22:19:25;;;;;;;;;;;9.00;99.90;;;;;;5069741;28;19917;-75
2021/11/12 22:21:52;;;;;;;;;;;9.00;99.90;;;;;;5071329;28;19916;-74
2021/11/12 22:24:18;;;;;;;;;;;9.00;99.90;;;;;;5069241;28;19927;-74
2021/11/12 22:26:46;;;;;;;;;;;9.00;99.90;;;;;;5070614;28;20239;-75
2021/11/12 22:29:12;;;;;;;;;;;8.90;99.90;;;;;;5068944;28;20058;-75
2021/11/12 22:31:39;;;;;;;;;;;9.00;99.90;;;;;;5069140;28;19912;-75
2021/11/12 22:34:04;;;;;;;;;;;9.00;99.90;;;;;;5069436;28;19920;-75
2021/11/12 22:36:30;;;;;;;;;;;8.90;99.90;;;;;;5070294;28;19963;-74
2021/11/12 22:38:55;;;;;;;;;;;8.90;99.90;;;;;;5069908;28;19979;-74
2021/11/12 22:41:21;;;;;;;;;;;8.90;99.90;;;;;;5069476;28;19912;-75
2021/11/12 22:43:49;;;;;;;;;;;8.80;99.90;;;;;;5068164;28;19923;-75
2021/11/12 22:46:16;;;;;;;;;;;8.80;99.90;;;;;;5069591;28;19916;-75
2021/11/12 22:48:41;;;;;;;;;;;8.80;99.90;;;;;;5070763;28;19966;-75
2021/11/12 22:51:07;;;;;;;;;;;8.80;99.90;;;;;;5068389;28;19920;-75
2021/11/12 22:53:32;;;;;;;;;;;8.80;99.90;;;;;;5071271;28;19912;-75
2021/11/12 22:55:58;;;;;;;;;;;8.80;99.90;;;;;;5068908;28;20284;-75
2021/11/12 22:58:24;;;;;;;;;;;8.80;99.90;;;;;;5069977;28;19916;-75
2021/11/12 23:00:49;;;;;;;;;;;8.80;99.90;;;;;;5070649;28;20050;-74
2021/11/12 23:03:15;;;;;;;;;;;8.90;99.90;;;;;;5066981;28;19995;-75
2021/11/12 23:05:41;;;;;;;;;;;8.90;99.90;;;;;;5069587;28;19920;-75
2021/11/12 23:08:07;;;;;;;;;;;8.90;99.90;;;;;;5068896;28;19921;-75
2021/11/12 23:10:32;;;;;;;;;;;8.90;99.90;;;;;;5068592;28;19978;-75
2021/11/12 23:12:58;;;;;;;;;;;8.90;99.90;;;;;;5083830;28;19964;-74
2021/11/12 23:15:24;;;;;;;;;;;9.00;99.90;;;;;;5071497;28;19916;-75
2021/11/12 23:17:49;;;;;;;;;;;9.00;99.90;;;;;;5071194;28;19924;-75
2021/11/12 23:20:15;;;;;;;;;;;9.00;99.90;;;;;;5075071;28;19912;-75
2021/11/12 23:22:41;;;;;;;;;;;9.00;99.90;;;;;;5075795;28;19932;-75
2021/11/12 23:25:07;;;;;;;;;;;9.00;99.90;;;;;;5073988;28;19966;-76
2021/11/12 23:27:32;;;;;;;;;;;9.00;99.90;;;;;;5073833;28;19953;-75
2021/11/12 23:29:58;;;;;;;;;;;9.10;99.90;;;;;;5073047;28;19948;-76
2021/11/12 23:32:24;;;;;;;;;;;9.10;99.90;;;;;;5076612;28;20216;-75
2021/11/12 23:34:49;;;;;;;;;;;9.10;99.90;;;;;;5073795;28;19986;-76
2021/11/12 23:37:15;;;;;;;;;;;9.10;99.90;;;;;;5074656;28;19913;-75
2021/11/12 23:39:40;;;;;;;;;;;9.10;99.90;;;;;;5075055;28;20011;-75
2021/11/12 23:42:06;;;;;;;;;;;9.10;99.90;;;;;;5074235;28;20333;-75
2021/11/12 23:44:32;;;;;;;;;;;9.00;99.90;;;;;;5075004;28;19920;-75
2021/11/12 23:46:57;;;;;;;;;;;9.10;99.90;;;;;;5073939;28;19916;-75
2021/11/12 23:49:23;;;;;;;;;;;9.10;99.90;;;;;;5074197;28;19920;-74
2021/11/12 23:51:49;;;;;;;;;;;9.10;99.90;;;;;;5076637;28;19916;-75
2021/11/12 23:54:15;;;;;;;;;;;9.10;99.90;;;;;;5076077;28;19927;-75
2021/11/12 23:56:41;;;;;;;;;;;9.10;99.90;;;;;;5073650;28;19912;-76
2021/11/12 23:59:06;;;;;;;;;;;9.10;99.90;;;;;;5072575;28;19923;-76
